createdAt,value
2018-08-06T00:01:01.939Z,100640.66
2018-08-06T00:03:30.951Z,100638.45
2018-08-06T00:06:00.019Z,100631.66
2018-08-06T00:08:29.320Z,100645.25
2018-08-06T00:10:58.288Z,100637.80
2018-08-06T00:13:27.149Z,100640.00
2018-08-06T00:15:56.117Z,100634.73
2018-08-06T00:18:25.924Z,100636.09
2018-08-06T00:20:54.716Z,100631.16
2018-08-06T00:23:23.556Z,100631.16
2018-08-06T00:25:52.422Z,100638.48
2018-08-06T00:28:21.375Z,100640.36
2018-08-06T00:30:50.294Z,100640.67
2018-08-06T00:33:19.121Z,100644.94
2018-08-06T00:35:47.980Z,100641.72
2018-08-06T00:38:16.798Z,100642.22
2018-08-06T00:40:45.545Z,100643.08
2018-08-06T00:43:14.360Z,100643.23
2018-08-06T00:45:43.234Z,100638.14
2018-08-06T00:48:12.065Z,100638.65
2018-08-06T00:50:40.891Z,100637.30
2018-08-06T00:53:09.730Z,100636.78
2018-08-06T00:55:38.557Z,100640.52
2018-08-06T00:58:07.521Z,100635.08
2018-08-06T01:00:36.336Z,100638.34
2018-08-06T01:03:05.150Z,100636.13
2018-08-06T01:05:34.798Z,100646.48
2018-08-06T01:08:03.635Z,100644.28
2018-08-06T01:10:32.465Z,100648.86
2018-08-06T01:13:01.321Z,100649.71
2018-08-06T01:15:30.281Z,100652.59
2018-08-06T01:17:59.147Z,100655.66
2018-08-06T01:20:27.899Z,100665.67
2018-08-06T01:22:56.714Z,100662.64
2018-08-06T01:25:25.505Z,100659.58
2018-08-06T01:27:54.303Z,100665.86
2018-08-06T01:30:23.220Z,100663.66
2018-08-06T01:32:52.022Z,100668.74
2018-08-06T01:35:20.869Z,100669.78
2018-08-06T01:37:49.643Z,100674.17
2018-08-06T01:40:18.476Z,100669.78
2018-08-06T01:42:47.547Z,100670.60
2018-08-06T01:45:17.260Z,100671.65
2018-08-06T01:47:46.468Z,100675.72
2018-08-06T01:50:17.063Z,100686.25
2018-08-06T01:52:46.616Z,100686.25
2018-08-06T01:55:16.021Z,100685.39
2018-08-06T01:57:44.951Z,100683.72
2018-08-06T02:00:15.624Z,100679.14
2018-08-06T02:02:44.447Z,100684.73
2018-08-06T02:05:13.343Z,100686.44
2018-08-06T02:07:42.277Z,100691.02
2018-08-06T02:10:14.133Z,100687.45
2018-08-06T02:12:43.786Z,100685.23
2018-08-06T02:15:13.179Z,100692.22
2018-08-06T02:17:42.084Z,100692.22
2018-08-06T02:20:13.470Z,100689.50
2018-08-06T02:22:42.336Z,100692.22
2018-08-06T02:25:11.705Z,100687.29
2018-08-06T02:27:40.710Z,100695.63
2018-08-06T02:30:14.536Z,100694.59
2018-08-06T02:32:43.363Z,100690.36
2018-08-06T02:35:13.997Z,100690.04
2018-08-06T02:37:43.258Z,100694.97
2018-08-06T02:40:14.902Z,100695.63
2018-08-06T02:42:43.723Z,100694.27
2018-08-06T02:45:12.485Z,100702.11
2018-08-06T02:47:41.340Z,100703.62
2018-08-06T02:50:11.381Z,100698.70
2018-08-06T02:52:41.101Z,100697.52
2018-08-06T02:55:11.704Z,100697.18
2018-08-06T02:57:40.538Z,100699.08
2018-08-06T03:00:11.713Z,100695.16
2018-08-06T03:02:41.167Z,100699.23
2018-08-06T03:05:12.440Z,100695.34
2018-08-06T03:07:41.906Z,100694.99
2018-08-06T03:10:10.919Z,100694.14
2018-08-06T03:12:39.760Z,100700.62
2018-08-06T03:15:09.822Z,100698.91
2018-08-06T03:17:39.012Z,100701.81
2018-08-06T03:20:08.758Z,100705.03
2018-08-06T03:22:38.162Z,100709.62
2018-08-06T03:25:09.024Z,100710.28
2018-08-06T03:27:37.948Z,100704.50
2018-08-06T03:30:09.042Z,100709.61
2018-08-06T03:32:38.181Z,100716.40
2018-08-06T03:35:08.522Z,100722.84
2018-08-06T03:37:37.308Z,100730.98
2018-08-06T03:40:06.481Z,100729.63
2018-08-06T03:42:35.193Z,100729.28
2018-08-06T03:45:04.197Z,100727.61
2018-08-06T03:47:33.016Z,100732.19
2018-08-06T03:50:01.758Z,100733.55
2018-08-06T03:52:30.559Z,100731.69
2018-08-06T03:54:59.341Z,100734.05
2018-08-06T03:57:28.199Z,100734.05
2018-08-06T03:59:56.961Z,100740.84
2018-08-06T04:02:25.687Z,100728.62
2018-08-06T04:04:54.442Z,100734.55
2018-08-06T04:07:23.202Z,100737.81
2018-08-06T04:09:51.943Z,100736.09
2018-08-06T04:12:20.709Z,100741.87
2018-08-06T04:14:49.442Z,100741.87
2018-08-06T04:17:18.197Z,100735.09
2018-08-06T04:19:47.048Z,100740.67
2018-08-06T04:22:15.877Z,100734.39
2018-08-06T04:24:44.709Z,100735.75
2018-08-06T04:27:13.453Z,100734.93
2018-08-06T04:29:42.192Z,100733.89
2018-08-06T04:32:11.001Z,100724.89
2018-08-06T04:34:39.718Z,100735.24
2018-08-06T04:37:08.485Z,100734.39
2018-08-06T04:39:37.218Z,100735.44
2018-08-06T04:42:06.129Z,100737.64
2018-08-06T04:44:34.950Z,100734.39
2018-08-06T04:47:03.800Z,100734.08
2018-08-06T04:49:32.529Z,100738.15
2018-08-06T04:52:01.343Z,100745.61
2018-08-06T04:54:30.204Z,100751.55
2018-08-06T04:56:59.022Z,100752.05
2018-08-06T04:59:27.858Z,100756.97
2018-08-06T05:01:56.636Z,100750.69
2018-08-06T05:04:25.399Z,100757.83
2018-08-06T05:06:54.153Z,100756.47
2018-08-06T05:09:25.008Z,100760.55
2018-08-06T05:11:53.819Z,100764.62
2018-08-06T05:14:22.586Z,100760.89
2018-08-06T05:16:51.375Z,100760.89
2018-08-06T05:19:20.167Z,100765.79
2018-08-06T05:21:49.131Z,100765.28
2018-08-06T05:24:18.011Z,100767.15
2018-08-06T05:26:46.873Z,100773.28
2018-08-06T05:29:15.623Z,100771.07
2018-08-06T05:31:44.508Z,100776.31
2018-08-06T05:34:13.248Z,100775.81
2018-08-06T05:36:42.029Z,100778.53
2018-08-06T05:39:10.777Z,100775.81
2018-08-06T05:41:39.822Z,100777.17
2018-08-06T05:44:08.620Z,100782.95
2018-08-06T05:46:37.356Z,100781.59
2018-08-06T05:49:06.247Z,100779.70
2018-08-06T05:51:35.043Z,100774.27
2018-08-06T05:54:04.017Z,100782.27
2018-08-06T05:56:32.772Z,100777.53
2018-08-06T05:59:01.746Z,100786.03
2018-08-06T06:01:30.564Z,100792.13
2018-08-06T06:03:59.368Z,100799.09
2018-08-06T06:06:28.223Z,100797.03
2018-08-06T06:08:57.027Z,100790.08
2018-08-06T06:11:25.812Z,100787.53
2018-08-06T06:13:54.683Z,100784.63
2018-08-06T06:16:23.561Z,100779.36
2018-08-06T06:18:52.355Z,100781.23
2018-08-06T06:21:21.463Z,100784.61
2018-08-06T06:23:50.178Z,100798.71
2018-08-06T06:26:18.981Z,100789.86
2018-08-06T06:28:47.779Z,100797.17
2018-08-06T06:31:16.723Z,100790.00
2018-08-06T06:33:45.562Z,100792.06
2018-08-06T06:36:14.335Z,100787.60
2018-08-06T06:38:43.118Z,100791.52
2018-08-06T06:41:11.951Z,100792.38
2018-08-06T06:43:40.876Z,100790.33
2018-08-06T06:46:09.744Z,100785.74
2018-08-06T06:48:38.509Z,100786.91
2018-08-06T06:51:07.295Z,100786.22
2018-08-06T06:53:36.052Z,100792.34
2018-08-06T06:56:05.043Z,100788.59
2018-08-06T06:58:33.970Z,100794.19
2018-08-06T07:01:02.777Z,100788.91
2018-08-06T07:03:31.614Z,100794.53
2018-08-06T07:06:00.478Z,100791.16
2018-08-06T07:08:29.285Z,100788.23
2018-08-06T07:10:58.109Z,100789.77
2018-08-06T07:13:26.937Z,100791.62
2018-08-06T07:15:55.789Z,100799.59
2018-08-06T07:18:24.586Z,100801.30
2018-08-06T07:20:53.453Z,100793.80
2018-08-06T07:23:22.288Z,100798.20
2018-08-06T07:25:51.176Z,100803.64
2018-08-06T07:28:19.947Z,100795.48
2018-08-06T07:30:48.700Z,100792.59
2018-08-06T07:33:17.468Z,100790.73
2018-08-06T07:35:46.294Z,100794.81
2018-08-06T07:38:15.043Z,100797.84
2018-08-06T07:40:43.850Z,100794.12
2018-08-06T07:43:12.659Z,100798.20
2018-08-06T07:45:41.462Z,100792.25
2018-08-06T07:48:10.252Z,100792.06
2018-08-06T07:50:39.016Z,100793.42
2018-08-06T07:53:08.388Z,100789.02
2018-08-06T07:55:37.301Z,100789.34
2018-08-06T07:58:06.276Z,100790.39
2018-08-06T08:00:35.084Z,100798.86
2018-08-06T08:03:03.855Z,100802.94
2018-08-06T08:05:33.904Z,100800.22
2018-08-06T08:08:02.767Z,100807.52
2018-08-06T08:10:31.753Z,100810.24
2018-08-06T08:13:00.565Z,100809.42
2018-08-06T08:15:29.376Z,100807.20
2018-08-06T08:17:58.554Z,100806.35
2018-08-06T08:20:27.476Z,100815.88
2018-08-06T08:22:56.436Z,100813.16
2018-08-06T08:25:25.218Z,100806.86
2018-08-06T08:27:54.063Z,100809.58
2018-08-06T08:30:22.966Z,100808.22
2018-08-06T08:32:51.807Z,100809.27
2018-08-06T08:35:20.635Z,100811.98
2018-08-06T08:37:49.538Z,100815.52
2018-08-06T08:40:19.760Z,100810.28
2018-08-06T08:42:48.600Z,100808.92
2018-08-06T08:45:18.413Z,100808.06
2018-08-06T08:47:47.349Z,100813.00
2018-08-06T08:50:17.818Z,100814.01
2018-08-06T08:52:46.646Z,100808.57
2018-08-06T08:55:16.793Z,100799.55
2018-08-06T08:57:45.988Z,100804.17
2018-08-06T09:00:17.844Z,100809.61
2018-08-06T09:02:47.685Z,100815.56
2018-08-06T09:05:17.194Z,100813.00
2018-08-06T09:07:46.230Z,100819.29
2018-08-06T09:10:16.198Z,100811.33
2018-08-06T09:12:45.108Z,100817.77
2018-08-06T09:15:25.286Z,100810.97
2018-08-06T09:17:54.153Z,100807.09
2018-08-06T09:20:23.934Z,100811.67
2018-08-06T09:22:52.798Z,100815.40
2018-08-06T09:25:21.662Z,100819.48
2018-08-06T09:27:51.533Z,100818.81
2018-08-06T09:30:21.712Z,100819.86
2018-08-06T09:32:53.011Z,100819.52
2018-08-06T09:35:22.201Z,100814.08
2018-08-06T09:37:51.130Z,100823.78
2018-08-06T09:40:21.130Z,100812.05
2018-08-06T09:42:50.506Z,100805.88
2018-08-06T09:45:20.663Z,100815.40
2018-08-06T09:47:50.950Z,100809.30
2018-08-06T09:50:20.619Z,100810.66
2018-08-06T09:52:50.576Z,100811.16
2018-08-06T09:55:21.909Z,100801.48
2018-08-06T09:57:51.064Z,100808.82
2018-08-06T10:00:26.956Z,100810.34
2018-08-06T10:02:57.126Z,100807.30
2018-08-06T10:05:26.713Z,100806.95
2018-08-06T10:07:55.537Z,100809.86
2018-08-06T10:10:24.385Z,100807.14
2018-08-06T10:12:53.267Z,100807.80
2018-08-06T10:15:22.607Z,100809.70
2018-08-06T10:17:53.729Z,100805.43
2018-08-06T10:20:23.914Z,100809.35
2018-08-06T10:22:52.713Z,100809.51
2018-08-06T10:25:21.607Z,100804.27
2018-08-06T10:27:50.385Z,100800.69
2018-08-06T10:30:22.170Z,100797.66
2018-08-06T10:32:50.945Z,100795.44
2018-08-06T10:35:20.463Z,100796.80
2018-08-06T10:37:49.236Z,100791.02
2018-08-06T10:40:20.343Z,100788.48
2018-08-06T10:42:49.168Z,100788.48
2018-08-06T10:45:19.151Z,100793.06
2018-08-06T10:47:48.234Z,100785.92
2018-08-06T10:50:17.211Z,100785.61
2018-08-06T10:52:45.952Z,100788.83
2018-08-06T10:55:14.849Z,100789.84
2018-08-06T10:57:44.969Z,100790.88
2018-08-06T11:00:17.171Z,100795.11
2018-08-06T11:02:46.211Z,100793.25
2018-08-06T11:05:15.915Z,100791.55
2018-08-06T11:07:44.858Z,100795.11
2018-08-06T11:10:15.194Z,100795.81
2018-08-06T11:12:44.150Z,100789.86
2018-08-06T11:15:17.150Z,100794.80
2018-08-06T11:17:46.229Z,100787.15
2018-08-06T11:20:16.197Z,100793.44
2018-08-06T11:22:45.155Z,100796.16
2018-08-06T11:25:16.695Z,100789.68
2018-08-06T11:27:45.680Z,100783.73
2018-08-06T11:30:16.625Z,100786.45
2018-08-06T11:32:46.003Z,100789.68
2018-08-06T11:35:15.436Z,100785.45
2018-08-06T11:37:44.344Z,100782.73
2018-08-06T11:40:14.513Z,100791.73
2018-08-06T11:42:44.098Z,100791.38
2018-08-06T11:45:15.218Z,100784.94
2018-08-06T11:47:44.061Z,100786.80
2018-08-06T11:50:12.947Z,100786.30
2018-08-06T11:52:41.908Z,100788.83
2018-08-06T11:55:11.161Z,100788.83
2018-08-06T11:57:40.980Z,100790.69
2018-08-06T12:00:13.851Z,100782.03
2018-08-06T12:02:42.744Z,100786.11
2018-08-06T12:05:11.615Z,100782.38
2018-08-06T12:07:40.604Z,100779.66
2018-08-06T12:10:14.428Z,100780.48
2018-08-06T12:12:44.335Z,100781.02
2018-08-06T12:15:13.328Z,100779.98
2018-08-06T12:17:42.546Z,100773.19
2018-08-06T12:20:13.178Z,100776.25
2018-08-06T12:22:43.332Z,100777.11
2018-08-06T12:25:13.110Z,100785.27
2018-08-06T12:27:42.324Z,100777.11
2018-08-06T12:30:16.040Z,100782.19
2018-08-06T12:32:45.739Z,100782.55
2018-08-06T12:35:14.992Z,100767.25
2018-08-06T12:37:44.004Z,100766.90
2018-08-06T12:40:15.023Z,100767.75
2018-08-06T12:42:44.065Z,100776.76
2018-08-06T12:45:14.002Z,100773.69
2018-08-06T12:47:43.258Z,100776.95
2018-08-06T12:50:13.289Z,100766.90
2018-08-06T12:52:42.838Z,100766.08
2018-08-06T12:55:13.870Z,100770.16
2018-08-06T12:57:43.323Z,100778.31
2018-08-06T13:00:25.036Z,100784.56
2018-08-06T13:02:54.230Z,100768.63
2018-08-06T13:05:23.962Z,100766.92
2018-08-06T13:07:52.929Z,100775.94
2018-08-06T13:10:21.838Z,100776.09
2018-08-06T13:12:50.671Z,100777.64
2018-08-06T13:15:19.506Z,100776.59
2018-08-06T13:17:48.393Z,100778.64
2018-08-06T13:20:17.290Z,100777.79
2018-08-06T13:22:46.134Z,100770.17
2018-08-06T13:25:14.994Z,100775.27
2018-08-06T13:27:43.945Z,100782.56
2018-08-06T13:30:14.805Z,100776.27
2018-08-06T13:32:44.330Z,100781.39
2018-08-06T13:35:14.285Z,100779.17
2018-08-06T13:37:43.246Z,100779.68
2018-08-06T13:40:12.603Z,100782.91
2018-08-06T13:42:41.413Z,100787.17
2018-08-06T13:45:12.254Z,100782.23
2018-08-06T13:47:41.290Z,100783.59
2018-08-06T13:50:10.792Z,100787.67
2018-08-06T13:52:39.650Z,100781.06
2018-08-06T13:55:09.977Z,100782.93
2018-08-06T13:57:39.051Z,100782.93
2018-08-06T14:00:12.268Z,100778.35
2018-08-06T14:02:41.152Z,100780.72
2018-08-06T14:05:11.659Z,100782.93
2018-08-06T14:07:40.518Z,100783.94
2018-08-06T14:10:10.188Z,100777.69
2018-08-06T14:12:39.470Z,100781.41
2018-08-06T14:15:09.911Z,100783.63
2018-08-06T14:17:39.397Z,100778.19
2018-08-06T14:20:09.215Z,100777.84
2018-08-06T14:22:38.671Z,100783.27
2018-08-06T14:25:08.639Z,100785.48
2018-08-06T14:27:37.650Z,100786.84
2018-08-06T14:30:09.481Z,100783.27
2018-08-06T14:32:38.314Z,100778.84
2018-08-06T14:35:07.382Z,100783.78
2018-08-06T14:37:36.251Z,100779.38
2018-08-06T14:40:06.346Z,100782.92
2018-08-06T14:42:35.131Z,100776.66
2018-08-06T14:45:04.441Z,100784.81
2018-08-06T14:47:33.236Z,100782.61
2018-08-06T14:50:02.091Z,100780.39
2018-08-06T14:52:30.911Z,100788.55
2018-08-06T14:54:59.766Z,100784.98
2018-08-06T14:57:32.352Z,100780.90
2018-08-06T15:00:01.251Z,100781.41
2018-08-06T15:02:30.129Z,100783.30
2018-08-06T15:04:58.921Z,100790.09
2018-08-06T15:07:27.777Z,100790.59
2018-08-06T15:09:56.719Z,100790.24
2018-08-06T15:12:25.619Z,100789.73
2018-08-06T15:14:54.399Z,100794.32
2018-08-06T15:17:23.240Z,100794.00
2018-08-06T15:19:52.063Z,100794.83
2018-08-06T15:22:20.970Z,100795.36
2018-08-06T15:24:49.813Z,100790.43
2018-08-06T15:27:18.763Z,100787.72
2018-08-06T15:29:47.603Z,100789.39
2018-08-06T15:32:16.378Z,100795.86
2018-08-06T15:34:45.175Z,100793.84
2018-08-06T15:37:14.038Z,100787.55
2018-08-06T15:39:43.172Z,100787.55
2018-08-06T15:42:11.984Z,100790.42
2018-08-06T15:44:40.852Z,100788.23
2018-08-06T15:47:10.282Z,100788.23
2018-08-06T15:49:39.134Z,100791.11
2018-08-06T15:52:07.953Z,100788.39
2018-08-06T15:54:36.826Z,100792.63
2018-08-06T15:57:05.631Z,100792.27
2018-08-06T15:59:34.415Z,100788.20
2018-08-06T16:02:03.623Z,100788.20
2018-08-06T16:04:32.471Z,100787.03
2018-08-06T16:07:01.302Z,100783.45
2018-08-06T16:09:30.124Z,100781.75
2018-08-06T16:11:59.051Z,100780.89
2018-08-06T16:14:27.853Z,100779.72
2018-08-06T16:16:56.692Z,100779.72
2018-08-06T16:19:25.736Z,100781.59
2018-08-06T16:21:54.550Z,100778.87
2018-08-06T16:24:23.377Z,100779.91
2018-08-06T16:26:52.493Z,100782.63
2018-08-06T16:29:21.459Z,100780.56
2018-08-06T16:31:50.386Z,100784.14
2018-08-06T16:34:19.349Z,100778.89
2018-08-06T16:36:48.171Z,100780.75
2018-08-06T16:39:17.132Z,100779.58
2018-08-06T16:41:45.980Z,100785.33
2018-08-06T16:44:14.877Z,100782.80
2018-08-06T16:46:43.827Z,100790.44
2018-08-06T16:49:12.672Z,100788.23
2018-08-06T16:51:41.506Z,100781.94
2018-08-06T16:54:10.308Z,100771.92
2018-08-06T16:56:39.144Z,100781.94
2018-08-06T16:59:08.567Z,100782.45
2018-08-06T17:01:37.639Z,100784.66
2018-08-06T17:04:06.513Z,100778.72
2018-08-06T17:06:35.392Z,100782.45
2018-08-06T17:09:06.036Z,100778.38
2018-08-06T17:11:34.853Z,100784.66
2018-08-06T17:14:03.807Z,100784.66
2018-08-06T17:16:32.787Z,100783.80
2018-08-06T17:19:01.616Z,100788.38
2018-08-06T17:21:30.544Z,100787.56
2018-08-06T17:23:59.659Z,100785.34
2018-08-06T17:26:28.911Z,100788.92
2018-08-06T17:29:03.764Z,100790.28
2018-08-06T17:31:32.659Z,100797.89
2018-08-06T17:34:01.511Z,100792.64
2018-08-06T17:36:30.452Z,100789.42
2018-08-06T17:38:59.262Z,100787.71
2018-08-06T17:41:28.754Z,100786.35
2018-08-06T17:43:57.867Z,100785.00
2018-08-06T17:46:27.238Z,100784.64
2018-08-06T17:48:56.243Z,100780.07
2018-08-06T17:51:25.621Z,100785.50
2018-08-06T17:53:54.426Z,100780.25
2018-08-06T17:56:23.228Z,100782.78
2018-08-06T17:58:52.055Z,100783.29
2018-08-06T18:01:20.843Z,100787.36
2018-08-06T18:03:49.703Z,100795.51
2018-08-06T18:06:18.514Z,100784.33
2018-08-06T18:08:47.420Z,100791.12
2018-08-06T18:11:17.182Z,100783.47
2018-08-06T18:13:45.979Z,100790.27
2018-08-06T18:16:14.954Z,100793.48
2018-08-06T18:18:44.041Z,100793.98
2018-08-06T18:21:12.888Z,100796.55
2018-08-06T18:23:41.780Z,100791.80
2018-08-06T18:26:10.639Z,100795.34
2018-08-06T18:28:41.013Z,100795.88
2018-08-06T18:31:11.515Z,100792.81
2018-08-06T18:33:40.436Z,100790.95
2018-08-06T18:36:09.905Z,100790.09
2018-08-06T18:38:38.785Z,100786.02
2018-08-06T18:41:07.674Z,100790.59
2018-08-06T18:43:39.652Z,100788.92
2018-08-06T18:46:08.525Z,100789.74
2018-08-06T18:48:37.659Z,100792.46
2018-08-06T18:51:06.544Z,100798.93
2018-08-06T18:53:35.487Z,100798.93
2018-08-06T18:56:04.439Z,100801.30
2018-08-06T18:58:33.333Z,100798.58
2018-08-06T19:01:02.210Z,100802.15
2018-08-06T19:03:33.731Z,100805.88
2018-08-06T19:06:02.987Z,100805.37
2018-08-06T19:08:33.910Z,100811.84
2018-08-06T19:11:02.993Z,100806.91
2018-08-06T19:13:37.261Z,100809.95
2018-08-06T19:16:11.568Z,100804.70
2018-08-06T19:18:45.617Z,100811.84
2018-08-06T19:21:14.520Z,100813.20
2018-08-06T19:23:43.943Z,100817.27
2018-08-06T19:26:12.902Z,100818.95
2018-08-06T19:28:41.758Z,100821.66
2018-08-06T19:31:16.006Z,100821.66
2018-08-06T19:33:44.897Z,100823.52
2018-08-06T19:36:13.743Z,100818.45
2018-08-06T19:38:42.577Z,100813.20
2018-08-06T19:41:11.438Z,100820.66
2018-08-06T19:43:40.426Z,100816.58
2018-08-06T19:46:09.967Z,100820.66
2018-08-06T19:48:38.809Z,100818.80
2018-08-06T19:51:07.663Z,100816.58
2018-08-06T19:53:36.625Z,100819.62
2018-08-06T19:56:11.043Z,100818.26
2018-08-06T19:58:39.894Z,100818.61
2018-08-06T20:01:08.753Z,100811.66
2018-08-06T20:03:37.706Z,100818.26
2018-08-06T20:06:08.155Z,100818.26
2018-08-06T20:08:37.050Z,100819.62
2018-08-06T20:11:06.401Z,100817.75
2018-08-06T20:13:35.403Z,100819.11
2018-08-06T20:16:04.476Z,100821.33
2018-08-06T20:18:33.420Z,100820.82
2018-08-06T20:21:02.259Z,100826.57
2018-08-06T20:23:31.787Z,100823.86
2018-08-06T20:26:00.760Z,100826.07
2018-08-06T20:28:29.707Z,100824.71
2018-08-06T20:30:59.551Z,100826.07
2018-08-06T20:33:28.449Z,100829.14
2018-08-06T20:35:58.201Z,100827.78
2018-08-06T20:38:27.117Z,100828.95
2018-08-06T20:40:56.000Z,100833.53
2018-08-06T20:43:25.246Z,100834.89
2018-08-06T20:45:54.521Z,100833.02
2018-08-06T20:48:23.425Z,100831.17
2018-08-06T20:50:52.967Z,100829.81
2018-08-06T20:53:21.911Z,100829.81
2018-08-06T20:55:50.881Z,100831.52
2018-08-06T20:58:20.188Z,100841.02
2018-08-06T21:00:49.330Z,100841.02
2018-08-06T21:03:18.217Z,100835.91
2018-08-06T21:05:47.071Z,100839.16
2018-08-06T21:08:15.999Z,100837.27
2018-08-06T21:10:44.914Z,100839.98
2018-08-06T21:13:13.778Z,100840.34
2018-08-06T21:15:42.603Z,100837.27
2018-08-06T21:18:11.474Z,100847.98
2018-08-06T21:20:40.333Z,100846.63
2018-08-06T21:23:09.195Z,100845.58
2018-08-06T21:25:38.421Z,100845.58
2018-08-06T21:28:07.321Z,100844.22
2018-08-06T21:30:36.165Z,100841.51
2018-08-06T21:33:05.161Z,100846.44
2018-08-06T21:35:33.980Z,100845.08
2018-08-06T21:38:02.892Z,100840.00
2018-08-06T21:40:31.708Z,100842.72
2018-08-06T21:43:01.516Z,100845.08
2018-08-06T21:45:30.339Z,100850.01
2018-08-06T21:47:59.102Z,100849.50
2018-08-06T21:50:27.972Z,100845.43
2018-08-06T21:52:56.829Z,100849.83
2018-08-06T21:55:25.682Z,100855.26
2018-08-06T21:57:55.425Z,100852.22
2018-08-06T22:00:36.554Z,100856.61
2018-08-06T22:03:13.813Z,100854.44
2018-08-06T22:05:42.991Z,100859.02
2018-08-06T22:08:11.900Z,100859.87
2018-08-06T22:10:40.817Z,100865.80
2018-08-06T22:13:10.497Z,100860.37
2018-08-06T22:15:39.924Z,100867.16
2018-08-06T22:18:10.356Z,100869.02
2018-08-06T22:20:39.286Z,100865.45
2018-08-06T22:23:08.707Z,100870.38
2018-08-06T22:25:37.781Z,100868.17
2018-08-06T22:28:08.056Z,100867.84
2018-08-06T22:30:36.992Z,100859.70
2018-08-06T22:33:06.141Z,100866.14
2018-08-06T22:35:35.085Z,100865.28
2018-08-06T22:38:04.040Z,100864.11
2018-08-06T22:40:32.907Z,100874.97
2018-08-06T22:43:01.741Z,100871.40
2018-08-06T22:45:30.594Z,100869.19
2018-08-06T22:47:59.386Z,100872.41
2018-08-06T22:50:28.373Z,100870.55
2018-08-06T22:52:57.518Z,100872.09
2018-08-06T22:55:26.462Z,100868.52
2018-08-06T22:57:55.270Z,100870.38
2018-08-06T23:00:24.130Z,100865.45
2018-08-06T23:02:53.059Z,100871.92
2018-08-06T23:05:21.856Z,100864.09
2018-08-06T23:07:50.686Z,100868.34
2018-08-06T23:10:19.599Z,100860.35
2018-08-06T23:12:48.497Z,100862.06
2018-08-06T23:15:17.742Z,100856.27
2018-08-06T23:17:46.734Z,100865.11
2018-08-06T23:20:15.658Z,100866.47
2018-08-06T23:22:44.524Z,100863.43
2018-08-06T23:25:13.325Z,100863.94
2018-08-06T23:27:42.117Z,100862.23
2018-08-06T23:30:13.993Z,100868.01
2018-08-06T23:32:43.215Z,100861.91
2018-08-06T23:35:13.247Z,100862.73
2018-08-06T23:37:43.164Z,100863.77
2018-08-06T23:40:12.854Z,100870.55
2018-08-06T23:42:42.255Z,100863.41
2018-08-06T23:45:12.226Z,100866.63
2018-08-06T23:47:41.566Z,100868.52
2018-08-06T23:50:12.414Z,100864.95
2018-08-06T23:52:42.662Z,100867.81
2018-08-06T23:55:13.083Z,100866.14
2018-08-06T23:57:42.360Z,100866.64
